Adena, OH

6:46 AM EST on December 20, 2014 (GMT -0500)
Upland Heights | Change Station
CLOSE
Current Station
Personal Weather Station
Location: Rayland, OH
Elevation: 1089 ft
Nearby Weather Stations

Elev 1089 ft 40.16 °N, 80.72 °W | Updated 14 minutes ago

Overcast
Overcast
27.9 °F
Feels Like 23 °F
N
4.7
Wind Variable Wind from NE

Today
High -- | Low -- °F
--% Chance of Precip.
Yesterday
High -- | Low -- °F
Precip. -- in
7:41 AM 5:00 PM
Waning Crescent, 3% visible
Pressure 30.30 in
Visibility 10.0 miles
Clouds Overcast 2300 ft
Windchill 23 °F
Dew Point 21 °F
Humidity 75%
Rainfall 0.00 in
Snow Depth Not available.
UV 0 out of 12
Pollen .10 out of 12
Air Quality Not available.
Flu Activity Not available.
METAR KHLG 201053Z AUTO 01003KT 10SM OVC023 M02/M07 A3025 RMK AO2 SLP259 T10221072

More Conditions Fewer Conditions

Pressure 30.30 in
Visibility 10.0 miles
Clouds Overcast 2300 ft
Windchill 23 °F
Dew Point 21 °F
Humidity 75%
Rainfall 0.00 in
Snow Depth Not available.
UV 0 out of 12
Pollen .10 out of 12
Air Quality Not available.
Flu Activity Not available.
METAR KHLG 201053Z AUTO 01003KT 10SM OVC023 M02/M07 A3025 RMK AO2 SLP259 T10221072

More Conditions Fewer Conditions

10-Day Weather Forecast

Almanac

Astronomy

Dec. 20, 2014 Rise Set
Actual Time
Civil Twilight
Nautical Twilight
Astronomical Twilight
Moon
Length of Visible Light
Length of Day
Tomorrow will be .
, % of the Moon is Illuminated

Today's Extremes

State Highs State Lows

Community

WunderPhotos

Upload Photos

1,779,160 photos uploaded!

WunderBlogs® & News

Nearby

Air Quality

  Air Quality AQ Index Pollutant
Not available.

Snow Depth

Station Depth Elevation

Earthquake Activity

City Distance Mag. Time & Date
Minimum magnitude displayed is 2.5.

Coastal Water Temperatures

Place Temperature

Nearby Weather Stations